Colinas Vista Alegre, Puerto Rico
Current Conditions -  °F | °C
As of 1:56 PM on Saturday 20 Dec 2014 (Local Time) from TJSJ Reporting Station
Scattered Clouds Scattered Clouds  
Wind Chill: 84°   Ceiling: Unl
Heat Index: 89°   Visibility: 10mi
Dew Point: 71°   Wind: 15mph
Humidity: 65%   Direction: 80°E
Pressure: 29.99"   Gusts: NA
Location:  18.1781°N, 66.1167°W
Report Text: TJSJ 201756Z 08013KT 10SM FEW038 SCT075 29/22 A2999 RMK AO2 SLP154 T02890217 10294 20244 58023
Loading
Personal Weather Stations






























Interactive Weather Map New forecast layout! Learn more

10-Day Weather Forecast

Advertisements
Track Severe Weather on mobile